Terminal Aerodrome Forecast
Issued by NWS

Home | Current Version | Previous Version | Graphics & Text | Print | Product List | Glossary On
Versions: 1 2 3 4 5 6 7 8 9 10 11 12 13 14 15 16 17
048
FTUS45 KGGW 010538
TAFSDY
TAF
KSDY 010538Z 0106/0206 31005KT 3SM -SHSN VCSH SCT016 OVC030
     FM011400 VRB03KT P6SM OVC010
     FM011800 VRB03KT P6SM OVC015
     FM012100 18004KT P6SM BKN020=

USA.gov is the U.S. government's official web portal to all federal, state and local government web resources and services.